Latest Weather Observations for PORTABLE QFRJ (North Tamborine)

IDQ60801

Issued at 7:32 pm EST Friday 16 November 2018 (issued every 10 minutes, with the page automatically refreshed every 10 minutes)

About weather observations | Map of weather stations | Latest weather observations for QLD | Other Formats
Station Details ID: 250074 Name: PORTABLE QFRJ (NORTH TAMBORINE) Lat: -27.94 Lon: 153.19 Height: 527.0 m
Data from the previous 72 hours. | See also: Recent months for locations in Queensland
Date/Time
EST
Temp
°C
App
Temp
°C
Dew
Point
°C
Rel
Hum
%
Delta-T
°C
Wind Press
QNH
hPa
Press
MSL
hPa
Rain since
9am
mm
Dir  Spd
km/h
Gust
km/h
Spd
kts
Gust
kts
16/07:20pm 18.4 17.8 15.7 84 1.6 E 13 15 7 8 - - 0.0
16/07:10pm 18.4 17.1 15.7 84 1.6 E 17 22 9 12 - - 0.0
16/07:00pm 18.5 17.1 15.5 83 1.8 E 17 20 9 11 - - 0.0
16/06:50pm 18.6 17.6 15.6 83 1.8 E 15 19 8 10 - - 0.0
16/06:40pm 18.6 18.1 15.8 84 1.7 E 13 19 7 10 - - 0.0
16/06:30pm 18.8 17.5 15.8 83 1.8 E 17 20 9 11 - - 0.0
16/06:20pm 18.9 17.3 16.0 83 1.8 E 19 22 10 12 - - 0.0
16/06:10pm 19.1 17.5 15.9 82 1.9 E 19 20 10 11 - - 0.0
16/06:00pm 19.4 17.8 15.9 80 2.1 E 19 22 10 12 - - 0.0
16/05:50pm 19.7 18.8 15.8 78 2.4 E 15 17 8 9 - - 0.0
16/05:40pm 20.1 19.6 15.9 77 2.6 E 13 17 7 9 - - 0.0
16/05:30pm 20.3 19.4 15.8 75 2.7 E 15 19 8 10 - - 0.0
16/05:20pm 20.5 19.6 15.8 74 2.9 E 15 20 8 11 - - 0.0
16/05:10pm 20.8 19.9 15.8 73 3.1 E 15 20 8 11 - - 0.0
16/05:00pm 20.8 19.3 15.2 70 3.4 E 17 20 9 11 - - 0.0
16/04:50pm 20.5 19.7 15.2 71 3.2 E 13 19 7 10 - - 0.0
16/04:40pm 20.5 19.3 15.1 71 3.3 ENE 15 19 8 10 - - 0.0
16/04:30pm 21.1 20.1 15.5 70 3.4 E 15 19 8 10 - - 0.0
16/04:20pm 21.8 20.8 15.6 68 3.8 ENE 15 17 8 9 - - 0.0
16/04:10pm 21.9 20.9 15.6 67 3.9 E 15 19 8 10 - - 0.0
16/04:00pm 22.2 21.5 15.5 66 4.1 E 13 20 7 11 - - 0.0
16/03:50pm 22.4 21.4 15.6 65 4.2 E 15 19 8 10 - - 0.0
16/03:40pm 22.8 22.2 15.6 64 4.4 E 13 17 7 9 - - 0.0
16/03:30pm 22.8 22.2 15.7 64 4.4 E 13 17 7 9 - - 0.0
16/03:20pm 22.8 21.8 15.6 64 4.4 ENE 15 19 8 10 - - 0.0
16/03:10pm 22.9 21.9 15.5 63 4.5 ENE 15 20 8 11 - - 0.0
16/03:00pm 23.2 23.0 15.6 62 4.7 E 11 17 6 9 - - 0.0
16/02:50pm 23.1 22.1 15.5 62 4.7 E 15 19 8 10 - - 0.0
16/02:40pm 23.0 21.9 15.4 62 4.7 ENE 15 20 8 11 - - 0.0
16/02:30pm 23.0 21.9 15.3 62 4.7 ENE 15 17 8 9 - - 0.0
16/02:20pm 23.0 22.4 15.6 63 4.5 E 13 19 7 10 - - 0.0
16/02:10pm 22.9 22.7 15.8 64 4.4 ENE 11 15 6 8 - - 0.0
16/02:00pm 23.5 23.4 15.9 62 4.7 E 11 19 6 10 - - 0.0
16/01:50pm 23.4 22.8 15.7 62 4.7 ENE 13 19 7 10 - - 0.0
16/01:40pm 23.5 23.0 15.8 62 4.8 E 13 17 7 9 - - 0.0
16/01:30pm 23.7 23.5 15.6 60 5.0 E 11 15 6 8 - - 0.0
16/01:20pm 23.5 23.4 15.9 62 4.7 ESE 11 15 6 8 - - 0.0
16/01:10pm 23.0 22.6 16.1 65 4.3 E 13 20 7 11 - - 0.0
16/01:00pm 23.7 24.2 16.5 64 4.5 ENE 9 13 5 7 - - 0.0
16/12:50pm 23.3 23.1 15.7 62 4.7 E 11 17 6 9 - - 0.0
16/12:40pm 23.2 23.0 15.8 63 4.6 ENE 11 17 6 9 - - 0.0
16/12:30pm 22.7 23.0 16.0 66 4.1 ENE 9 11 5 6 - - 0.0
16/12:20pm 23.0 23.7 16.1 65 4.3 ENE 7 11 4 6 - - 0.0
16/12:10pm 23.1 23.6 15.6 62 4.6 E 7 11 4 6 - - 0.0
16/12:00pm 23.1 23.7 15.7 63 4.6 ENE 7 13 4 7 - - 0.0
16/11:50am 23.5 24.7 15.8 62 4.8 ESE 4 13 2 7 - - 0.0
16/11:40am 22.9 23.3 15.3 62 4.6 ENE 7 11 4 6 - - 0.0
16/11:30am 23.1 23.6 15.5 62 4.7 E 7 13 4 7 - - 0.0
16/11:20am 23.5 24.1 15.2 59 5.1 E 6 15 3 8 - - 0.0
16/11:10am 23.4 24.3 15.0 59 5.1 E 4 9 2 5 - - 0.0
16/11:00am 23.3 23.7 15.3 60 4.9 ESE 7 13 4 7 - - 0.0
16/10:50am 23.3 23.2 14.0 56 5.6 E 7 11 4 6 - - 0.0
16/10:40am 22.8 22.8 14.2 58 5.2 NE 7 11 4 6 - - 0.0
16/10:30am 22.7 22.9 14.6 60 4.9 ESE 7 11 4 6 - - 0.0
16/10:20am 22.5 22.9 14.7 61 4.7 NE 6 9 3 5 - - 0.0
16/10:10am 22.5 23.3 14.7 61 4.7 NE 4 7 2 4 - - 0.0
16/10:00am 23.2 23.5 14.6 58 5.2 ENE 6 11 3 6 - - 0.0
16/09:50am 23.6 23.7 14.4 56 5.6 ESE 7 15 4 8 - - 0.0
16/09:40am 23.4 23.8 15.2 60 5.0 E 7 13 4 7 - - 0.0
16/09:30am 23.7 24.6 15.2 59 5.2 E 4 7 2 4 - - 0.0
16/09:20am 22.5 23.4 15.0 62 4.6 ESE 4 9 2 5 - - 0.0
16/09:10am 22.5 23.3 14.9 62 4.6 S 4 7 2 4 - - 0.0
16/09:00am 22.3 22.8 15.1 63 4.4 NE 6 9 3 5 - - 0.4
16/08:50am 22.9 23.4 15.0 61 4.8 ESE 6 9 3 5 - - 0.4
16/08:40am 23.1 25.1 16.9 68 3.9 W 2 2 1 1 - - 0.4
16/08:30am 21.7 23.1 16.5 72 3.2 NW 4 9 2 5 - - 0.4
16/08:20am 21.2 22.8 16.8 76 2.7 W 4 6 2 3 - - 0.4
16/08:10am 20.6 21.7 16.7 78 2.4 WSW 6 9 3 5 - - 0.4
16/08:00am 21.0 22.2 16.9 77 2.6 W 6 7 3 4 - - 0.2
16/07:50am 21.1 22.6 16.7 76 2.7 NW 4 7 2 4 - - 0.2
16/07:40am 21.1 22.0 16.2 73 3.0 NNW 6 7 3 4 - - 0.2
16/07:30am 21.5 23.1 16.9 75 2.9 NW 4 7 2 4 - - 0.2
16/07:20am 21.7 23.6 16.6 73 3.2 W 2 4 1 2 - - 0.2
16/07:10am 21.3 22.6 16.2 72 3.1 E 4 6 2 3 - - 0.2
16/07:00am 20.7 21.8 15.7 73 3.1 E 4 6 2 3 - - 0.2
16/06:50am 20.5 21.2 16.0 75 2.8 SE 7 9 4 5 - - 0.2
16/06:40am 20.0 21.0 16.3 79 2.3 SE 6 7 3 4 - - 0.2
16/06:30am 18.8 20.5 16.3 85 1.5 N 2 4 1 2 - - 0.2
16/06:20am 18.2 20.0 16.4 89 1.1 NNE 2 6 1 3 - - 0.2
16/06:10am 18.0 19.7 16.2 89 1.1 NNE 2 2 1 1 - - 0.2
16/06:00am 17.6 19.3 16.1 91 0.9 NE 2 4 1 2 - - 0.2
16/05:50am 17.3 19.3 15.9 91 0.8 CALM 0 0 0 0 - - 0.2
16/05:40am 17.4 19.2 15.6 89 1.1 CALM 0 0 0 0 - - 0.2
16/05:30am 17.6 19.2 15.9 90 1.0 ENE 2 4 1 2 - - 0.2
16/05:20am 17.4 18.6 15.8 90 1.0 ENE 4 4 2 2 - - 0.2
16/05:10am 17.0 18.2 15.8 93 0.7 ENE 4 4 2 2 - - 0.2
16/05:00am 16.7 18.2 15.8 94 0.5 NE 2 4 1 2 - - 0.2
16/04:50am 16.5 17.7 15.8 96 0.4 ENE 4 4 2 2 - - 0.2
16/04:40am 16.1 17.5 15.5 96 0.4 NE 2 4 1 2 - - 0.2
16/04:30am 15.8 17.1 15.1 96 0.4 ENE 2 2 1 1 - - 0.2
16/04:20am 15.9 17.5 14.9 94 0.6 CALM 0 0 0 0 - - 0.2
16/04:10am 16.5 17.6 15.5 94 0.6 E 4 4 2 2 - - 0.2
16/04:00am 16.5 17.6 15.5 94 0.6 E 4 4 2 2 - - 0.2
16/03:50am 16.6 17.7 15.5 93 0.7 E 4 4 2 2 - - 0.2
16/03:40am 16.8 17.9 15.5 92 0.8 E 4 4 2 2 - - 0.2
16/03:30am 16.7 17.8 15.5 93 0.7 ENE 4 4 2 2 - - 0.2
16/03:20am 16.6 17.6 15.4 93 0.7 ENE 4 4 2 2 - - 0.2
16/03:10am 16.5 17.5 15.3 93 0.7 ENE 4 6 2 3 - - 0.2
16/03:00am 16.5 17.9 15.4 93 0.7 NE 2 4 1 2 - - 0.2
16/02:50am 16.6 18.0 15.3 92 0.8 NE 2 2 1 1 - - 0.2
16/02:40am 16.9 18.3 15.4 91 0.9 NE 2 4 1 2 - - 0.2
16/02:30am 16.9 18.3 15.4 91 0.9 ENE 2 4 1 2 - - 0.2
16/02:20am 17.1 18.5 15.5 90 1.0 ENE 2 4 1 2 - - 0.2
16/02:10am 17.1 18.2 15.5 90 1.0 ENE 4 4 2 2 - - 0.2
16/02:00am 17.1 18.2 15.5 90 1.0 ENE 4 4 2 2 - - 0.2
16/01:50am 17.1 18.2 15.5 90 1.0 ENE 4 4 2 2 - - 0.2
16/01:40am 16.9 18.4 15.6 92 0.8 NE 2 4 1 2 - - 0.2
16/01:30am 17.0 18.9 15.7 92 0.8 CALM 0 4 0 2 - - 0.2
16/01:20am 17.2 18.7 15.7 91 0.9 NNE 2 4 1 2 - - 0.2
16/01:10am 17.3 18.8 15.7 90 1.0 NNE 2 4 1 2 - - 0.2
16/01:00am 17.5 18.6 15.7 89 1.1 NE 4 6 2 3 - - 0.2
16/12:50am 17.5 18.2 15.5 88 1.2 ENE 6 7 3 4 - - 0.2
16/12:40am 17.5 18.1 15.4 87 1.3 ENE 6 7 3 4 - - 0.2
16/12:30am 17.4 18.6 15.8 90 1.0 ENE 4 4 2 2 - - 0.2
16/12:20am 17.4 19.0 16.0 91 0.8 NE 2 4 1 2 - - 0.2
16/12:10am 17.4 19.1 16.2 93 0.7 NE 2 4 1 2 - - 0.2
16/12:00am 17.4 19.1 16.3 93 0.7 NNW 2 2 1 1 - - 0.2
 
Date/Time
EST
Temp
°C
App
Temp
°C
Dew
Point
°C
Rel
Hum
%
Delta-T
°C
Wind Press
QNH
hPa
Press
MSL
hPa
Rain since
9am
mm
Dir  Spd
km/h
Gust
km/h
Spd
kts
Gust
kts
15/11:50pm 17.5 19.2 16.2 92 0.8 NE 2 4 1 2 - - 0.2
15/11:40pm 17.6 19.7 16.3 92 0.8 CALM 0 2 0 1 - - 0.2
15/11:30pm 17.6 19.0 16.3 92 0.8 ENE 4 6 2 3 - - 0.2
15/11:20pm 17.7 18.6 16.2 91 0.9 ENE 6 7 3 4 - - 0.2
15/11:10pm 17.9 18.2 16.1 89 1.1 ENE 9 13 5 7 - - 0.0
15/11:00pm 18.1 18.7 15.8 86 1.4 E 7 9 4 5 - - 0.0
15/10:50pm 18.1 18.9 15.8 86 1.4 SE 6 7 3 4 - - 0.0
15/10:40pm 18.0 18.7 15.7 86 1.4 SE 6 7 3 4 - - 0.0
15/10:30pm 17.9 18.7 15.8 87 1.3 E 6 6 3 3 - - 0.0
15/10:20pm 17.9 19.1 15.8 87 1.3 E 4 6 2 3 - - 0.0
15/10:10pm 17.9 18.7 15.8 87 1.3 E 6 7 3 4 - - 0.0
15/10:00pm 17.9 18.7 15.8 87 1.3 E 6 7 3 4 - - 0.0
15/09:50pm 18.0 18.6 15.7 86 1.4 E 7 9 4 5 - - 0.0
15/09:40pm 18.0 18.2 15.7 86 1.4 ENE 9 9 5 5 - - 0.0
15/09:30pm 18.1 18.2 15.6 85 1.5 ENE 9 11 5 6 - - 0.0
15/09:20pm 18.0 18.6 15.7 86 1.4 ENE 7 9 4 5 - - 0.0
15/09:10pm 18.0 18.6 15.7 86 1.4 ENE 7 9 4 5 - - 0.0
15/09:00pm 17.9 18.6 15.7 87 1.3 ENE 6 7 3 4 - - 0.0
15/08:50pm 17.9 18.5 15.7 87 1.3 E 7 11 4 6 - - 0.0
15/08:40pm 18.0 18.2 15.8 87 1.3 E 9 11 5 6 - - 0.0
15/08:30pm 18.1 18.7 15.7 86 1.4 E 7 11 4 6 - - 0.0
15/08:20pm 18.1 18.7 15.7 86 1.4 E 7 9 4 5 - - 0.0
15/08:10pm 18.1 18.7 15.7 86 1.4 E 7 11 4 6 - - 0.0
15/08:00pm 18.1 18.6 15.6 85 1.5 E 7 11 4 6 - - 0.0
15/07:50pm 18.2 18.3 15.5 84 1.6 E 9 11 5 6 - - 0.0
15/07:40pm 18.2 18.7 15.5 84 1.6 ENE 7 11 4 6 - - 0.0
15/07:30pm 18.3 19.1 15.8 85 1.5 ENE 6 7 3 4 - - 0.0
15/07:20pm 18.3 18.9 15.8 85 1.5 E 7 9 4 5 - - 0.0
15/07:10pm 18.3 18.9 15.8 85 1.5 E 7 9 4 5 - - 0.0
15/07:00pm 18.4 18.7 15.9 85 1.5 E 9 11 5 6 - - 0.0
15/06:50pm 18.5 18.3 15.8 84 1.6 E 11 15 6 8 - - 0.0
15/06:40pm 18.6 18.4 15.7 83 1.8 E 11 13 6 7 - - 0.0
15/06:30pm 18.8 18.2 15.6 82 1.9 E 13 15 7 8 - - 0.0
15/06:20pm 18.9 18.7 15.6 81 2.0 E 11 13 6 7 - - 0.0
15/06:10pm 19.1 18.4 15.4 79 2.2 E 13 17 7 9 - - 0.0
15/06:00pm 19.3 18.2 15.3 77 2.4 E 15 17 8 9 - - 0.0
15/05:50pm 19.7 19.0 15.4 76 2.6 E 13 17 7 9 - - 0.0
15/05:40pm 20.1 19.0 15.3 74 2.9 E 15 17 8 9 - - 0.0
15/05:30pm 20.4 20.1 15.5 73 3.0 E 11 15 6 8 - - 0.0
15/05:20pm 20.7 20.0 15.5 72 3.2 E 13 17 7 9 - - 0.0
15/05:10pm 21.0 20.5 15.8 72 3.2 E 13 19 7 10 - - 0.0
15/05:00pm 21.2 20.6 15.7 71 3.4 E 13 15 7 8 - - 0.0
15/04:50pm 21.4 20.9 16.0 71 3.3 E 13 15 7 8 - - 0.0
15/04:40pm 21.7 21.6 16.0 70 3.5 E 11 15 6 8 - - 0.0
15/04:30pm 22.1 21.8 16.5 70 3.5 ENE 13 15 7 8 - - 0.0
15/04:20pm 22.4 22.6 16.7 70 3.6 E 11 15 6 8 - - 0.0
15/04:10pm 22.2 22.4 16.8 71 3.4 E 11 13 6 7 - - 0.0
15/04:00pm 22.0 22.1 16.5 71 3.4 E 11 15 6 8 - - 0.0
15/03:50pm 22.7 22.9 16.7 69 3.7 E 11 13 6 7 - - 0.0
15/03:40pm 22.7 22.9 16.8 69 3.7 E 11 15 6 8 - - 0.0
15/03:30pm 22.7 22.6 17.0 70 3.6 E 13 17 7 9 - - 0.0
15/03:20pm 22.8 22.6 16.8 69 3.8 ESE 13 17 7 9 - - 0.0
15/03:10pm 23.0 22.5 16.9 68 3.8 ESE 15 19 8 10 - - 0.0
15/03:00pm 23.2 23.1 16.9 67 4.0 E 13 15 7 8 - - 0.0
15/02:50pm 22.7 22.7 17.1 70 3.5 E 13 19 7 10 - - 0.0
15/02:40pm 22.3 21.8 16.8 71 3.4 E 15 19 8 10 - - 0.0
15/02:30pm 22.3 22.3 17.1 72 3.3 E 13 17 7 9 - - 0.0
15/02:20pm 22.2 22.6 17.3 74 3.1 E 11 13 6 7 - - 0.0
15/02:10pm 22.3 22.8 17.4 74 3.1 E 11 13 6 7 - - 0.0
15/02:00pm 22.4 23.1 17.0 71 3.4 E 9 11 5 6 - - 0.0
15/01:50pm 22.6 23.4 17.2 71 3.4 E 9 13 5 7 - - 0.0
15/01:40pm 23.0 23.4 17.2 70 3.7 E 11 15 6 8 - - 0.0
15/01:30pm 23.0 23.0 17.1 69 3.7 E 13 17 7 9 - - 0.0
15/01:20pm 22.8 22.7 17.0 70 3.6 E 13 17 7 9 - - 0.0
15/01:10pm 23.1 22.6 16.9 68 3.9 E 15 17 8 9 - - 0.0
15/01:00pm 23.8 24.5 17.0 65 4.3 E 9 13 5 7 - - 0.0
15/12:50pm 24.2 26.0 16.4 61 4.9 ENE 2 4 1 2 - - 0.0
15/12:40pm 23.8 24.7 16.0 61 4.8 ENE 6 7 3 4 - - 0.0
15/12:30pm 24.1 25.0 16.0 60 5.0 ENE 6 9 3 5 - - 0.0
15/12:20pm 24.0 25.1 15.5 59 5.2 NNW 4 7 2 4 - - 0.0
15/12:10pm 24.3 24.6 15.1 56 5.6 NE 7 9 4 5 - - 0.0
15/12:00pm 24.2 25.1 15.1 56 5.6 WSW 4 6 2 3 - - 0.0
15/11:50am 23.7 24.6 15.0 58 5.3 WNW 4 7 2 4 - - 0.0
15/11:40am 23.6 23.7 15.5 60 5.0 NW 9 13 5 7 - - 0.0
15/11:30am 24.2 24.4 14.8 55 5.7 WNW 7 11 4 6 - - 0.0
15/11:20am 23.1 23.3 14.8 59 5.0 WNW 7 11 4 6 - - 0.0
15/11:10am 23.6 24.3 16.0 62 4.7 NW 7 13 4 7 - - 0.0
15/11:00am 23.4 23.8 15.4 60 4.9 NNW 7 13 4 7 - - 0.0
15/10:50am 23.0 23.6 15.9 64 4.4 WNW 7 11 4 6 - - 0.0
15/10:40am 24.1 25.2 16.6 63 4.7 NW 6 11 3 6 - - 0.0
15/10:30am 23.7 24.1 15.3 59 5.2 NW 7 11 4 6 - - 0.0
15/10:20am 23.3 23.8 15.5 61 4.8 WNW 7 9 4 5 - - 0.0
15/10:10am 22.2 22.9 16.0 68 3.8 W 7 11 4 6 - - 0.0
15/10:00am 22.0 23.6 16.0 68 3.7 WSW 2 9 1 5 - - 0.0
15/09:50am 21.4 22.1 15.7 70 3.5 W 6 9 3 5 - - 0.0
15/09:40am 21.4 22.1 16.1 72 3.3 WNW 7 9 4 5 - - 0.0
15/09:30am 21.5 22.3 15.9 70 3.4 WNW 6 9 3 5 - - 0.0
15/09:20am 21.5 22.3 15.8 70 3.5 WNW 6 7 3 4 - - 0.0
15/09:10am 21.3 22.2 16.0 72 3.3 NW 6 7 3 4 - - 0.0
15/09:00am 21.4 21.7 15.0 67 3.9 NNW 7 11 4 6 - - 0.2
15/08:50am 21.5 21.7 14.7 65 4.1 NW 7 9 4 5 - - 0.2
15/08:30am 20.2 20.4 14.2 68 3.6 NW 6 9 3 5 - - 0.2
15/08:20am 19.8 20.7 16.6 82 2.0 NW 7 9 4 5 - - 0.2
15/08:10am 19.8 19.9 15.4 76 2.7 NW 9 13 5 7 - - 0.2
15/08:00am 19.5 19.4 15.9 80 2.2 NW 11 11 6 6 - - 0.2
15/07:50am 19.3 19.6 16.1 82 2.0 NW 9 13 5 7 - - 0.2
15/07:40am 19.0 19.4 16.4 85 1.6 NW 9 11 5 6 - - 0.2
15/07:30am 18.9 19.4 16.5 86 1.5 NW 9 11 5 6 - - 0.2
15/07:20am 19.3 20.4 16.7 85 1.6 NW 6 9 3 5 - - 0.2
15/07:10am 19.4 20.5 16.6 84 1.7 NNW 6 9 3 5 - - 0.2
15/07:00am 19.9 21.5 17.0 83 1.8 N 4 6 2 3 - - 0.2
15/06:50am 20.0 21.6 16.9 82 1.9 N 4 7 2 4 - - 0.2
15/06:40am 19.5 21.1 16.9 85 1.6 NNE 4 6 2 3 - - 0.2
15/06:30am 18.9 20.0 16.6 86 1.4 N 6 7 3 4 - - 0.2
15/06:20am 18.5 19.6 16.7 89 1.1 NNW 6 7 3 4 - - 0.2
15/06:10am 18.2 19.2 16.8 91 0.9 N 7 7 4 4 - - 0.2
15/06:00am 17.9 19.5 16.9 94 0.6 N 4 6 2 3 - - 0.2
15/05:50am 17.6 19.5 16.8 95 0.5 N 2 4 1 2 - - 0.2
15/05:40am 17.2 18.7 16.6 96 0.4 N 4 6 2 3 - - 0.2
15/05:30am 17.0 18.0 16.4 96 0.4 N 6 6 3 3 - - 0.2
15/05:20am 16.7 18.0 16.2 97 0.3 N 4 6 2 3 - - 0.2
15/05:10am 16.6 17.5 16.1 97 0.3 NNW 6 6 3 3 - - 0.2
15/05:00am 16.4 17.6 15.8 96 0.4 NNW 4 4 2 2 - - 0.2
15/04:50am 16.4 17.6 15.8 96 0.4 NNW 4 6 2 3 - - 0.2
15/04:40am 16.5 17.7 15.9 96 0.4 NNW 4 4 2 2 - - 0.2
15/04:30am 16.7 18.0 16.1 96 0.4 NNW 4 6 2 3 - - 0.2
15/04:20am 16.8 18.1 16.2 96 0.4 NNW 4 6 2 3 - - 0.2
15/04:10am 16.9 18.3 16.3 96 0.4 NW 4 6 2 3 - - 0.2
15/04:00am 16.9 17.9 16.4 97 0.3 NNW 6 6 3 3 - - 0.2
15/03:50am 17.0 18.4 16.4 96 0.4 NNW 4 6 2 3 - - 0.2
15/03:40am 17.0 18.0 16.4 96 0.4 NW 6 7 3 4 - - 0.2
15/03:30am 17.0 18.4 16.4 96 0.4 NW 4 6 2 3 - - 0.2
15/03:20am 17.0 18.4 16.3 96 0.4 NNW 4 6 2 3 - - 0.2
15/03:10am 17.0 18.4 16.3 96 0.4 NNW 4 6 2 3 - - 0.2
15/03:00am 17.1 18.4 16.2 94 0.5 NW 4 6 2 3 - - 0.2
15/02:50am 17.1 18.4 16.1 94 0.6 NW 4 6 2 3 - - 0.2
15/02:40am 17.0 18.2 15.9 93 0.7 NW 4 6 2 3 - - 0.2
15/02:30am 16.8 17.5 15.7 93 0.7 NW 6 6 3 3 - - 0.2
15/02:20am 16.5 17.0 15.6 94 0.5 NW 7 7 4 4 - - 0.2
15/02:10am 16.3 17.0 15.6 96 0.4 NW 6 7 3 4 - - 0.2
15/02:00am 16.2 16.9 15.5 96 0.4 WNW 6 7 3 4 - - 0.2
15/01:50am 16.6 17.8 15.8 95 0.5 NW 4 6 2 3 - - 0.2
15/01:40am 16.8 18.0 16.0 95 0.5 NW 4 4 2 2 - - 0.2
15/01:30am 16.9 18.2 16.2 96 0.4 NW 4 6 2 3 - - 0.2
15/01:20am 17.0 18.0 16.3 96 0.4 NNW 6 6 3 3 - - 0.2
15/01:10am 17.1 18.1 16.4 96 0.4 NNW 6 7 3 4 - - 0.2
15/01:00am 17.2 18.3 16.5 96 0.4 NNW 6 7 3 4 - - 0.2
15/12:50am 17.3 18.4 16.6 96 0.4 NNW 6 9 3 5 - - 0.2
15/12:40am 17.3 18.4 16.6 96 0.4 NNW 6 7 3 4 - - 0.2
15/12:30am 17.4 18.5 16.7 96 0.4 NNW 6 11 3 6 - - 0.2
15/12:20am 17.4 18.3 16.7 96 0.4 NNW 7 11 4 6 - - 0.2
15/12:10am 17.5 18.5 16.8 96 0.4 NNW 7 9 4 5 - - 0.2
15/12:00am 17.5 18.5 16.8 96 0.4 NNW 7 9 4 5 - - 0.2
 
Date/Time
EST
Temp
°C
App
Temp
°C
Dew
Point
°C
Rel
Hum
%
Delta-T
°C
Wind Press
QNH
hPa
Press
MSL
hPa
Rain since
9am
mm
Dir  Spd
km/h
Gust
km/h
Spd
kts
Gust
kts
14/11:50pm 17.5 18.7 16.8 96 0.4 N 6 7 3 4 - - 0.2
14/11:40pm 17.6 18.8 16.8 95 0.5 N 6 7 3 4 - - 0.2
14/11:30pm 17.6 18.8 16.9 96 0.4 N 6 7 3 4 - - 0.2
14/11:20pm 17.5 19.1 16.8 96 0.4 N 4 7 2 4 - - 0.2
14/11:10pm 17.5 18.6 16.7 95 0.5 N 6 9 3 5 - - 0.2
14/11:00pm 17.5 18.6 16.6 94 0.6 N 6 7 3 4 - - 0.2
14/10:50pm 17.5 19.0 16.6 94 0.6 NNE 4 6 2 3 - - 0.2
14/10:40pm 17.5 18.6 16.6 94 0.6 N 6 7 3 4 - - 0.2
14/10:30pm 17.5 18.6 16.5 94 0.6 N 6 7 3 4 - - 0.2
14/10:20pm 17.6 19.4 16.5 93 0.7 N 2 4 1 2 - - 0.2
14/10:10pm 17.7 18.8 16.5 93 0.7 N 6 7 3 4 - - 0.2
14/10:00pm 17.8 19.2 16.5 92 0.8 NNE 4 7 2 4 - - 0.2
14/09:50pm 17.8 19.3 16.6 93 0.7 NNE 4 6 2 3 - - 0.2
14/09:40pm 17.8 19.3 16.7 93 0.7 NNE 4 6 2 3 - - 0.2
14/09:30pm 17.8 19.3 16.7 93 0.7 NNE 4 6 2 3 - - 0.2
14/09:20pm 17.9 19.0 16.7 93 0.7 NNE 6 7 3 4 - - 0.2
14/09:10pm 17.9 19.0 16.7 93 0.7 NE 6 7 3 4 - - 0.2
14/09:00pm 17.9 19.0 16.7 93 0.7 NE 6 7 3 4 - - 0.2
14/08:50pm 17.9 18.8 16.7 93 0.7 ENE 7 9 4 5 - - 0.2
14/08:40pm 17.8 18.7 16.6 93 0.7 ENE 7 9 4 5 - - 0.2
14/08:30pm 17.8 18.6 16.4 91 0.9 ENE 7 9 4 5 - - 0.2
14/08:20pm 17.8 18.2 16.3 91 0.9 ENE 9 11 5 6 - - 0.2
14/08:10pm 17.8 18.1 16.1 90 1.0 ENE 9 13 5 7 - - 0.2
14/08:00pm 17.8 18.2 16.2 90 1.0 ENE 9 11 5 6 - - 0.2
14/07:50pm 17.8 18.2 16.2 90 1.0 ENE 9 11 5 6 - - 0.2
14/07:40pm 17.8 18.2 16.2 90 1.0 ENE 9 11 5 6 - - 0.2
14/07:30pm 17.9 18.2 16.1 89 1.1 ENE 9 9 5 5 - - 0.2
14/07:20pm 17.8 18.5 16.0 89 1.1 ENE 7 11 4 6 - - 0.2
14/07:10pm 17.9 18.5 15.9 88 1.2 ENE 7 9 4 5 - - 0.2
14/07:00pm 18.0 18.6 15.9 87 1.3 ENE 7 11 4 6 - - 0.2
14/06:50pm 18.1 18.4 16.0 87 1.3 ENE 9 11 5 6 - - 0.2
14/06:40pm 18.3 18.6 16.0 86 1.4 E 9 13 5 7 - - 0.2
14/06:30pm 18.5 18.4 16.0 85 1.5 E 11 15 6 8 - - 0.2
14/06:20pm 18.7 18.2 15.9 84 1.7 E 13 17 7 9 - - 0.2
14/06:10pm 18.8 18.7 16.0 84 1.7 E 11 13 6 7 - - 0.2
14/06:00pm 18.9 18.9 16.2 84 1.6 E 11 15 6 8 - - 0.2
14/05:50pm 19.1 18.7 16.2 83 1.8 E 13 17 7 9 - - 0.2
14/05:40pm 19.3 19.2 16.1 82 2.0 E 11 17 6 9 - - 0.2
14/05:30pm 19.5 19.3 15.7 78 2.3 ENE 11 15 6 8 - - 0.2
14/05:20pm 19.7 19.5 15.6 77 2.5 E 11 13 6 7 - - 0.2
14/05:10pm 19.8 19.8 15.3 75 2.7 E 9 11 5 6 - - 0.2
14/05:00pm 19.6 19.2 15.3 76 2.6 E 11 13 6 7 - - 0.2
14/04:50pm 19.6 19.6 15.3 76 2.6 ENE 9 13 5 7 - - 0.2
14/04:40pm 20.3 20.1 15.6 74 2.9 ENE 11 13 6 7 - - 0.2
14/04:30pm 20.5 20.1 15.3 72 3.1 E 11 11 6 6 - - 0.2
14/04:20pm 20.3 19.9 15.3 73 3.0 E 11 13 6 7 - - 0.2
14/04:10pm 19.8 19.1 15.5 76 2.6 E 13 17 7 9 - - 0.2
14/04:00pm 20.4 19.9 15.9 75 2.8 E 13 19 7 10 - - 0.2
14/03:50pm 20.2 19.7 15.9 76 2.6 E 13 17 7 9 - - 0.2
14/03:40pm 20.3 20.4 16.4 78 2.4 E 11 15 6 8 - - 0.2
14/03:30pm 20.0 19.6 16.3 79 2.3 E 13 17 7 9 - - 0.2
14/03:20pm 20.3 20.0 16.5 79 2.3 E 13 17 7 9 - - 0.2
14/03:10pm 20.2 19.6 16.6 80 2.2 E 15 19 8 10 - - 0.2
14/03:00pm 20.4 20.1 16.4 78 2.5 E 13 19 7 10 - - 0.2
14/02:50pm 20.6 19.8 16.1 75 2.8 E 15 19 8 10 - - 0.2
14/02:40pm 21.0 20.3 16.3 74 2.9 ENE 15 20 8 11 - - 0.2
14/02:30pm 21.6 21.6 16.3 72 3.3 E 11 15 6 8 - - 0.2
14/02:20pm 21.5 21.0 16.0 71 3.4 ENE 13 15 7 8 - - 0.2
14/02:10pm 21.7 21.3 16.1 70 3.5 E 13 17 7 9 - - 0.0
14/02:00pm 21.8 21.9 15.5 67 3.8 ENE 9 13 5 7 - - 0.0
14/01:50pm 21.9 21.1 15.2 65 4.1 E 13 19 7 10 - - 0.0
14/01:40pm 21.9 21.1 15.2 65 4.1 E 13 17 7 9 - - 0.0
14/01:30pm 21.5 20.8 15.5 68 3.7 E 13 17 7 9 - - 0.0
14/01:20pm 21.6 21.1 15.9 70 3.5 E 13 15 7 8 - - 0.0
14/01:10pm 21.7 21.5 15.7 68 3.7 E 11 19 6 10 - - 0.0
14/01:00pm 22.1 21.2 15.8 67 3.9 ESE 15 19 8 10 - - 0.0
14/12:50pm 22.5 21.5 15.6 65 4.2 ESE 15 19 8 10 - - 0.0
14/12:40pm 22.1 22.1 15.3 65 4.1 E 9 11 5 6 - - 0.0
14/12:30pm 22.0 21.6 15.1 65 4.2 E 11 15 6 8 - - 0.0
14/12:20pm 22.9 22.2 15.3 62 4.6 ESE 13 19 7 10 - - 0.0
14/12:10pm 22.8 23.0 15.7 64 4.4 E 9 15 5 8 - - 0.0
14/12:00pm 22.3 22.1 14.8 62 4.5 ESE 9 13 5 7 - - 0.0
14/11:50am 21.8 21.1 14.4 63 4.4 E 11 17 6 9 - - 0.0
14/11:40am 21.4 20.4 14.7 65 4.0 E 13 17 7 9 - - 0.0
14/11:30am 21.7 21.0 15.5 68 3.8 E 13 17 7 9 - - 0.0
14/11:20am 22.2 21.5 15.5 66 4.1 ESE 13 15 7 8 - - 0.0
14/11:10am 21.9 21.4 15.0 65 4.2 SE 11 17 6 9 - - 0.0
14/11:00am 21.1 21.1 15.3 69 3.5 E 9 13 5 7 - - 0.0
14/10:50am 21.2 21.2 15.1 68 3.7 E 9 11 5 6 - - 0.0
14/10:40am 21.4 21.9 15.5 69 3.6 NE 7 11 4 6 - - 0.0
14/10:30am 21.5 22.4 16.0 71 3.4 E 6 9 3 5 - - 0.0
14/10:20am 21.2 21.6 15.3 69 3.6 ENE 7 13 4 7 - - 0.0
14/10:10am 20.9 21.6 15.6 71 3.2 E 6 11 3 6 - - 0.0
14/10:00am 19.9 20.4 15.6 76 2.6 E 7 9 4 5 - - 0.0
14/09:50am 19.6 20.1 15.5 77 2.5 E 7 11 4 6 - - 0.0
14/09:40am 20.0 20.5 15.5 75 2.7 E 7 9 4 5 - - 0.0
14/09:30am 20.1 20.2 15.5 75 2.8 E 9 13 5 7 - - 0.0
14/09:20am 20.7 21.0 16.0 74 2.9 E 9 13 5 7 - - 0.0
14/09:10am 21.1 21.6 15.6 71 3.4 ENE 7 11 4 6 - - 0.0
14/09:00am 20.4 20.6 14.8 70 3.4 E 7 13 4 7 - - 0.0
14/08:50am 19.8 19.7 15.0 74 2.9 ENE 9 13 5 7 - - 0.0
14/08:40am 20.0 19.8 14.8 72 3.1 ENE 9 13 5 7 - - 0.0
14/08:30am 20.1 19.9 14.8 71 3.2 ENE 9 13 5 7 - - 0.0
14/08:20am 19.8 20.0 15.7 77 2.5 E 9 15 5 8 - - 0.0
14/08:10am 19.3 19.1 15.6 79 2.2 E 11 17 6 9 - - 0.0
14/08:00am 18.8 18.5 15.5 81 2.0 E 11 19 6 10 - - 0.0
14/07:50am 18.5 17.8 15.3 81 1.9 E 13 17 7 9 - - 0.0
14/07:40am 18.4 17.6 15.1 81 2.0 E 13 17 7 9 - - 0.0
14/07:30am 18.4 17.6 15.1 81 2.0 E 13 15 7 8 - - 0.0
14/07:20am 18.1 17.6 14.8 81 2.0 E 11 13 6 7 - - 0.0
14/07:10am 18.4 18.4 15.1 81 2.0 E 9 15 5 8 - - 0.0
14/07:00am 18.3 18.3 15.1 81 1.9 ESE 9 11 5 6 - - 0.0
14/06:50am 18.1 18.4 15.0 82 1.8 ESE 7 9 4 5 - - 0.0
14/06:40am 17.9 18.2 14.9 82 1.8 E 7 9 4 5 - - 0.0
14/06:30am 17.9 18.2 14.9 82 1.8 E 7 9 4 5 - - 0.0
14/06:20am 17.9 18.2 15.0 83 1.7 E 7 11 4 6 - - 0.0
14/06:10am 17.9 18.2 14.9 82 1.8 E 7 9 4 5 - - 0.0
14/06:00am 18.0 17.9 15.0 82 1.8 E 9 11 5 6 - - 0.0
14/05:50am 17.9 17.7 14.8 82 1.8 E 9 15 5 8 - - 0.0
14/05:40am 17.5 17.3 14.6 83 1.7 E 9 11 5 6 - - 0.0
14/05:30am 17.1 17.3 14.6 85 1.5 E 7 9 4 5 - - 0.0
14/05:20am 16.6 16.9 14.5 87 1.2 E 6 9 3 5 - - 0.0
14/05:10am 16.1 16.8 14.4 90 1.0 E 4 7 2 4 - - 0.0
14/05:00am 15.9 16.6 14.4 91 0.9 E 4 6 2 3 - - 0.0
14/04:50am 15.9 16.1 14.3 90 0.9 ESE 6 9 3 5 - - 0.0
14/04:40am 15.9 16.2 14.4 91 0.9 E 6 7 3 4 - - 0.0
14/04:30am 15.9 16.0 14.4 91 0.9 E 7 9 4 5 - - 0.0
14/04:20am 15.9 15.6 14.4 91 0.9 E 9 11 5 6 - - 0.0
14/04:10am 16.0 15.7 14.4 90 0.9 E 9 13 5 7 - - 0.0
14/04:00am 16.0 15.7 14.3 90 1.0 E 9 11 5 6 - - 0.0
14/03:50am 16.0 16.1 14.4 90 0.9 ESE 7 9 4 5 - - 0.0
14/03:40am 16.1 16.1 14.3 89 1.1 ESE 7 9 4 5 - - 0.0
14/03:30am 16.1 16.1 14.3 89 1.1 ESE 7 9 4 5 - - 0.0
14/03:20am 16.1 16.3 14.3 89 1.1 ESE 6 7 3 4 - - 0.0
14/03:10am 16.0 16.2 14.2 89 1.0 E 6 7 3 4 - - 0.0
14/03:00am 15.8 16.0 14.1 90 1.0 ESE 6 9 3 5 - - 0.0
14/02:50am 15.8 15.9 13.9 88 1.1 E 6 6 3 3 - - 0.0
14/02:40am 15.9 16.0 13.9 88 1.2 E 6 7 3 4 - - 0.0
14/02:30am 16.0 16.0 13.7 86 1.3 E 6 9 3 5 - - 0.0
14/02:20am 16.0 15.8 13.6 86 1.4 E 7 9 4 5 - - 0.0
14/02:10am 15.9 15.7 13.5 86 1.4 E 7 9 4 5 - - 0.0
14/02:00am 15.8 15.5 13.4 86 1.4 E 7 7 4 4 - - 0.0
14/01:50am 15.8 15.7 13.3 85 1.4 E 6 7 3 4 - - 0.0
14/01:40am 15.8 15.5 13.2 84 1.5 ESE 7 7 4 4 - - 0.0
14/01:30am 15.8 15.4 13.1 84 1.5 ESE 7 9 4 5 - - 0.0
14/01:20am 15.8 15.1 13.1 84 1.5 ESE 9 11 5 6 - - 0.0
14/01:10am 15.7 14.9 13.0 84 1.5 ESE 9 11 5 6 - - 0.0
14/01:00am 15.8 15.0 13.0 83 1.6 ESE 9 11 5 6 - - 0.0
14/12:50am 15.8 15.4 13.0 83 1.6 ESE 7 9 4 5 - - 0.0
14/12:40am 15.8 15.4 13.0 83 1.6 ESE 7 11 4 6 - - 0.0
14/12:30am 15.9 15.7 13.1 83 1.6 ESE 6 9 3 5 - - 0.0
14/12:20am 15.9 15.5 12.9 82 1.7 SE 7 9 4 5 - - 0.0
14/12:10am 15.9 15.4 12.7 81 1.8 SE 7 7 4 4 - - 0.0
14/12:00am 15.9 15.4 12.5 80 1.9 ESE 7 9 4 5 - - 0.0
 
Date/Time
EST
Temp
°C
App
Temp
°C
Dew
Point
°C
Rel
Hum
%
Delta-T
°C
Wind Press
QNH
hPa
Press
MSL
hPa
Rain since
9am
mm
Dir  Spd
km/h
Gust
km/h
Spd
kts
Gust
kts
13/11:50pm 15.9 15.3 12.4 80 2.0 ESE 7 9 4 5 - - 0.0
13/11:40pm 15.8 15.3 12.2 79 2.0 ESE 6 9 3 5 - - 0.0
13/11:30pm 15.8 15.2 12.2 79 2.0 ESE 7 9 4 5 - - 0.0
13/11:20pm 15.9 15.2 12.1 78 2.1 ESE 7 11 4 6 - - 0.0
13/11:10pm 15.9 14.8 12.1 78 2.1 ESE 9 13 5 7 - - 0.0
13/11:00pm 16.0 14.5 12.0 77 2.2 ESE 11 15 6 8 - - 0.0
13/10:50pm 16.0 14.5 12.0 77 2.2 ESE 11 11 6 6 - - 0.0
13/10:40pm 16.1 15.0 11.9 76 2.3 ESE 9 13 5 7 - - 0.0
13/10:30pm 16.0 14.9 11.9 76 2.3 ESE 9 11 5 6 - - 0.0
13/10:20pm 16.0 14.9 11.8 76 2.3 ESE 9 11 5 6 - - 0.0
13/10:10pm 16.0 14.9 11.9 76 2.3 ESE 9 13 5 7 - - 0.0
13/10:00pm 16.0 14.9 11.9 76 2.3 ESE 9 11 5 6 - - 0.0
13/09:50pm 16.1 15.0 12.0 76 2.3 ESE 9 13 5 7 - - 0.0
13/09:40pm 16.0 15.0 12.2 78 2.1 ESE 9 11 5 6 - - 0.0
13/09:30pm 16.1 15.1 12.3 78 2.1 ESE 9 13 5 7 - - 0.0
13/09:20pm 16.3 14.9 12.2 77 2.3 ESE 11 13 6 7 - - 0.0
13/09:10pm 16.3 14.9 12.2 77 2.3 ESE 11 15 6 8 - - 0.0
13/09:00pm 16.3 14.9 12.2 77 2.3 SE 11 11 6 6 - - 0.0
13/08:50pm 16.3 15.0 12.4 78 2.2 ESE 11 15 6 8 - - 0.0
13/08:40pm 16.3 14.5 12.2 77 2.3 ESE 13 15 7 8 - - 0.0
13/08:30pm 16.2 14.8 12.1 76 2.3 ESE 11 13 6 7 - - 0.0
13/08:20pm 16.2 15.1 12.0 76 2.4 ESE 9 13 5 7 - - 0.0
13/08:10pm 16.3 15.2 11.9 75 2.5 ESE 9 13 5 7 - - 0.0
13/08:00pm 16.3 14.8 11.9 75 2.5 ESE 11 13 6 7 - - 0.0
13/07:50pm 16.3 14.8 11.8 74 2.5 ESE 11 13 6 7 - - 0.0
13/07:40pm 16.4 14.9 11.9 75 2.5 ESE 11 17 6 9 - - 0.0

Other Formats:

Comma delimited format used in spreadsheet applications
http://www.bom.gov.au/fwo/IDQ60801/IDQ60801.99123.axf

JavaScript Object Notation format (JSON) in row-major order
http://www.bom.gov.au/fwo/IDQ60801/IDQ60801.99123.json